Time;durP1;ratioP1;P1;durP2;ratioP2;P2;SDS_P1;SDS_P2;PMS_P1;PMS_P2;Temp;Humidity;BMP_temperature;BMP_pressure;BME280_temperature;BME280_humidity;BME280_pressure;Samples;Min_cycle;Max_cycle;Signal;HPM_P1;HPM_P2
2021/04/27 00:01:42;;;;;;;4.50;1.45;;;7.90;45.30;;;;;;5032605;28;20037;-73
2021/04/27 00:04:08;;;;;;;5.88;1.30;;;7.80;45.70;;;;;;5031079;28;20041;-72
2021/04/27 00:06:34;;;;;;;3.30;1.40;;;7.70;44.60;;;;;;5018525;28;20096;-74
2021/04/27 00:08:59;;;;;;;15.98;1.55;;;7.70;44.60;;;;;;5017533;28;20121;-74
2021/04/27 00:11:25;;;;;;;3.70;1.27;;;7.60;44.60;;;;;;5029509;28;20048;-73
2021/04/27 00:13:51;;;;;;;3.55;1.20;;;7.50;44.70;;;;;;5032242;28;20025;-72
2021/04/27 00:16:17;;;;;;;3.67;1.45;;;7.40;44.90;;;;;;5029790;28;20042;-73
2021/04/27 00:18:42;;;;;;;3.13;1.73;;;7.40;45.00;;;;;;5030660;28;20042;-73
2021/04/27 00:21:08;;;;;;;1.98;1.00;;;7.40;45.00;;;;;;5030537;28;20060;-74
2021/04/27 00:23:33;;;;;;;4.28;1.00;;;7.40;45.10;;;;;;5030424;28;20088;-72
2021/04/27 00:25:59;;;;;;;3.10;1.35;;;7.30;45.20;;;;;;5032099;28;20112;-74
2021/04/27 00:28:25;;;;;;;4.53;1.50;;;7.30;45.20;;;;;;5030291;28;20029;-72
2021/04/27 00:30:51;;;;;;;2.85;1.35;;;7.30;45.80;;;;;;5030619;28;20376;-72
2021/04/27 00:33:17;;;;;;;4.00;1.30;;;7.30;45.60;;;;;;5030564;28;20037;-73
2021/04/27 00:35:43;;;;;;;1.95;1.08;;;7.30;45.60;;;;;;5030306;28;20042;-73
2021/04/27 00:38:09;;;;;;;2.15;0.98;;;7.30;45.60;;;;;;5030607;28;20029;-73
2021/04/27 00:40:35;;;;;;;3.53;1.10;;;7.30;45.50;;;;;;5030443;28;20459;-74
2021/04/27 00:43:01;;;;;;;3.17;1.17;;;7.30;45.50;;;;;;5030519;28;20144;-73
2021/04/27 00:45:28;;;;;;;2.75;0.98;;;7.30;45.50;;;;;;5030249;28;20543;-73
2021/04/27 00:47:55;;;;;;;3.70;1.58;;;7.20;45.40;;;;;;5029988;28;20175;-73
2021/04/27 00:50:33;;;;;;;3.78;1.48;;;7.20;45.50;;;;;;5030365;28;20069;-72
2021/04/27 00:53:00;;;;;;;8.18;1.83;;;7.20;45.40;;;;;;5031865;28;20048;-73
2021/04/27 00:55:27;;;;;;;4.07;1.10;;;7.10;45.50;;;;;;5028994;28;20041;-73
2021/04/27 00:57:52;;;;;;;4.40;1.45;;;7.10;45.60;;;;;;5030003;28;20065;-75
2021/04/27 01:00:22;;;;;;;4.30;1.30;;;7.10;45.60;;;;;;5030105;28;20430;-73
2021/04/27 01:02:48;;;;;;;3.55;1.30;;;7.10;45.50;;;;;;5028463;28;20042;-73
2021/04/27 01:05:20;;;;;;;3.78;0.95;;;7.00;45.50;;;;;;5029707;28;20100;-72
2021/04/27 01:08:18;;;;;;;3.80;1.27;;;7.00;45.50;;;;;;5031282;28;20440;-72
2021/04/27 01:10:48;;;;;;;7.60;1.33;;;6.90;45.70;;;;;;5029966;28;20030;-74
2021/04/27 01:13:37;;;;;;;3.78;1.20;;;6.90;46.40;;;;;;5029718;28;20081;-73
2021/04/27 01:16:06;;;;;;;3.63;1.23;;;6.80;45.90;;;;;;5029292;28;20060;-73
2021/04/27 01:18:32;;;;;;;4.35;1.20;;;6.90;45.90;;;;;;5028354;28;20057;-73
2021/04/27 01:21:01;;;;;;;5.88;1.60;;;6.90;46.00;;;;;;5029446;28;20534;-73
2021/04/27 01:23:26;;;;;;;;;;;6.80;45.80;;;;;;5029854;28;20585;-72
2021/04/27 01:26:27;;;;;;;2.00;1.10;;;6.70;46.00;;;;;;5031283;28;20227;-73
2021/04/27 01:28:54;;;;;;;4.03;1.20;;;6.70;46.00;;;;;;5028878;28;20057;-74
2021/04/27 01:31:22;;;;;;;6.47;1.20;;;6.70;46.00;;;;;;5029150;28;20038;-74
2021/04/27 01:33:48;;;;;;;3.13;0.90;;;6.60;46.10;;;;;;5029046;28;20037;-73
2021/04/27 01:36:14;;;;;;;2.58;0.98;;;6.60;46.30;;;;;;5020571;28;20052;-73
2021/04/27 01:38:42;;;;;;;5.60;1.13;;;6.50;46.40;;;;;;5013915;28;20110;-73
2021/04/27 01:41:08;;;;;;;;;;;6.40;46.60;;;;;;5029833;28;20053;-73
2021/04/27 01:43:34;;;;;;;2.50;1.00;;;6.40;46.70;;;;;;5029010;28;20397;-72
2021/04/27 01:46:05;;;;;;;5.82;1.00;;;6.40;46.80;;;;;;5029019;28;20175;-73
2021/04/27 01:48:36;;;;;;;3.55;1.08;;;6.40;46.80;;;;;;5027683;28;20061;-73
2021/04/27 01:51:04;;;;;;;6.53;1.52;;;6.40;46.80;;;;;;5029228;28;20033;-72
2021/04/27 01:53:30;;;;;;;;;;;6.40;46.80;;;;;;5028362;28;20040;-77
2021/04/27 01:55:56;;;;;;;4.35;1.00;;;6.40;46.90;;;;;;5030455;28;20000;-74
2021/04/27 01:58:22;;;;;;;3.05;0.93;;;6.40;47.10;;;;;;5027748;28;20692;-73
2021/04/27 02:00:47;;;;;;;8.77;2.08;;;6.40;47.00;;;;;;5028649;28;20045;-73
2021/04/27 02:03:13;;;;;;;4.57;1.17;;;6.40;47.10;;;;;;5028903;28;20367;-72
2021/04/27 02:05:39;;;;;;;3.45;1.02;;;6.40;47.30;;;;;;5028681;28;20447;-73
2021/04/27 02:08:07;;;;;;;2.65;1.02;;;6.50;47.00;;;;;;5030136;28;20044;-73
2021/04/27 02:10:34;;;;;;;3.17;1.00;;;6.50;46.90;;;;;;5028997;28;20068;-73
2021/04/27 02:13:06;;;;;;;1.38;0.88;;;6.60;46.90;;;;;;5028892;28;20033;-72
2021/04/27 02:15:32;;;;;;;7.32;1.40;;;6.60;46.90;;;;;;5029030;28;20053;-73
2021/04/27 02:18:14;;;;;;;5.07;1.50;;;6.60;47.70;;;;;;5027801;28;20467;-73
2021/04/27 02:20:41;;;;;;;3.88;1.00;;;6.50;48.20;;;;;;5028684;28;20029;-72
2021/04/27 02:23:07;;;;;;;3.35;1.10;;;6.50;48.40;;;;;;5029854;28;20033;-73
2021/04/27 02:25:33;;;;;;;2.13;0.80;;;6.40;48.50;;;;;;5028660;28;20092;-74
2021/04/27 02:28:00;;;;;;;3.50;0.95;;;6.30;48.50;;;;;;5028591;28;20111;-73
2021/04/27 02:30:26;;;;;;;1.50;0.90;;;6.30;49.00;;;;;;5028603;28;20030;-73
2021/04/27 02:32:53;;;;;;;6.18;1.20;;;6.40;48.60;;;;;;5028502;28;20506;-73
2021/04/27 02:35:20;;;;;;;1.60;1.00;;;6.50;48.50;;;;;;5028375;28;20021;-73
2021/04/27 02:37:48;;;;;;;2.78;1.02;;;6.40;48.10;;;;;;5029115;28;20137;-73
2021/04/27 02:40:19;;;;;;;;;;;6.50;48.10;;;;;;5031333;28;20041;-74
2021/04/27 02:42:49;;;;;;;1.73;0.85;;;6.40;48.70;;;;;;5031255;28;19916;-74
2021/04/27 02:45:15;;;;;;;6.07;1.45;;;6.40;48.80;;;;;;5031497;28;20223;-74
2021/04/27 02:47:40;;;;;;;2.63;1.00;;;6.30;49.40;;;;;;5032532;28;20098;-74
2021/04/27 02:50:07;;;;;;;4.07;1.20;;;6.30;49.50;;;;;;5034096;28;20052;-73
2021/04/27 02:52:34;;;;;;;6.65;0.95;;;6.20;50.50;;;;;;5032757;28;20097;-73
2021/04/27 02:55:00;;;;;;;10.88;1.23;;;6.20;49.90;;;;;;5030979;28;20048;-72
2021/04/27 02:57:25;;;;;;;4.60;1.33;;;6.20;49.40;;;;;;5030887;28;20034;-73
2021/04/27 02:59:51;;;;;;;4.70;1.00;;;6.20;48.80;;;;;;5032098;28;20033;-73
2021/04/27 03:02:16;;;;;;;3.95;1.00;;;6.10;48.80;;;;;;5032379;28;20199;-74
2021/04/27 03:04:43;;;;;;;3.10;1.00;;;6.00;49.00;;;;;;5032728;28;20029;-72
2021/04/27 03:07:08;;;;;;;3.20;0.95;;;6.00;49.20;;;;;;5031037;28;20039;-74
2021/04/27 03:09:34;;;;;;;8.60;1.60;;;5.90;49.20;;;;;;5032146;28;20038;-73
2021/04/27 03:12:00;;;;;;;8.32;1.25;;;5.90;49.40;;;;;;5031770;28;20021;-73
2021/04/27 03:14:26;;;;;;;4.95;1.25;;;5.90;49.50;;;;;;5030886;28;20079;-73
2021/04/27 03:16:51;;;;;;;2.35;1.10;;;5.80;49.70;;;;;;5033508;28;20022;-73
2021/04/27 03:19:17;;;;;;;1.50;1.02;;;5.80;49.60;;;;;;5031748;28;20053;-73
2021/04/27 03:21:43;;;;;;;3.88;1.48;;;5.80;49.70;;;;;;5032101;28;20038;-79
2021/04/27 03:24:09;;;;;;;3.60;1.20;;;5.80;49.80;;;;;;5031598;28;20038;-73
2021/04/27 03:26:35;;;;;;;2.17;1.20;;;5.80;49.60;;;;;;5031832;28;20072;-74
2021/04/27 03:29:00;;;;;;;5.68;1.50;;;5.90;50.00;;;;;;5033143;28;20064;-74
2021/04/27 03:31:26;;;;;;;3.70;0.98;;;6.00;49.70;;;;;;5031082;28;20048;-73
2021/04/27 03:33:52;;;;;;;4.40;1.00;;;5.90;49.70;;;;;;5031116;28;20049;-73
2021/04/27 03:36:18;;;;;;;1.60;0.90;;;5.90;49.70;;;;;;5031422;28;20114;-73
2021/04/27 03:38:43;;;;;;;4.00;1.42;;;5.90;51.40;;;;;;5031359;28;20037;-74
2021/04/27 03:41:09;;;;;;;3.90;1.00;;;6.00;51.00;;;;;;5032997;28;20230;-74
2021/04/27 03:43:34;;;;;;;3.47;1.10;;;5.90;50.40;;;;;;5030306;28;20041;-73
2021/04/27 03:46:00;;;;;;;3.72;1.23;;;5.80;50.30;;;;;;5031130;28;20044;-74
2021/04/27 03:48:26;;;;;;;2.90;1.10;;;5.70;50.50;;;;;;5031163;28;20046;-74
2021/04/27 03:50:51;;;;;;;5.25;1.42;;;5.60;50.80;;;;;;5030902;28;20038;-73
2021/04/27 03:53:17;;;;;;;3.63;1.30;;;5.60;50.80;;;;;;5031336;28;20759;-73
2021/04/27 03:55:44;;;;;;;7.22;1.45;;;5.60;50.80;;;;;;5032833;28;20466;-73
2021/04/27 03:58:10;;;;;;;2.70;1.13;;;5.60;50.80;;;;;;5030984;28;20087;-73
2021/04/27 04:00:36;;;;;;;3.45;1.38;;;5.70;50.70;;;;;;5031056;28;20049;-73
2021/04/27 04:03:02;;;;;;;5.10;1.50;;;5.70;50.70;;;;;;5029667;28;20084;-73
2021/04/27 04:05:28;;;;;;;7.03;2.33;;;5.70;51.00;;;;;;5030761;28;20431;-73
2021/04/27 04:07:53;;;;;;;4.80;1.27;;;5.70;52.00;;;;;;5032618;28;20436;-74
2021/04/27 04:10:19;;;;;;;3.10;1.10;;;5.70;51.20;;;;;;5030756;28;20546;-73
2021/04/27 04:12:45;;;;;;;6.38;1.38;;;5.70;51.30;;;;;;5030661;28;20099;-73
2021/04/27 04:15:14;;;;;;;6.45;1.55;;;5.60;52.60;;;;;;5029670;28;20072;-74
2021/04/27 04:17:41;;;;;;;15.63;1.60;;;5.50;53.00;;;;;;5030953;28;20117;-73
2021/04/27 04:20:13;;;;;;;4.20;1.40;;;5.50;53.50;;;;;;5031291;28;20044;-73
2021/04/27 04:22:39;;;;;;;3.55;1.55;;;5.50;53.40;;;;;;5030896;28;20088;-73
2021/04/27 04:25:08;;;;;;;6.80;1.20;;;5.40;53.90;;;;;;5030339;28;20422;-73
2021/04/27 04:27:33;;;;;;;;;;;5.40;53.70;;;;;;5030861;28;20061;-74
2021/04/27 04:29:59;;;;;;;10.70;1.45;;;5.40;53.50;;;;;;5030490;28;19967;-74
2021/04/27 04:32:25;;;;;;;5.57;1.60;;;5.40;53.40;;;;;;5030096;28;20055;-74
2021/04/27 04:34:53;;;;;;;5.85;1.20;;;5.40;53.10;;;;;;5031957;28;20049;-73
2021/04/27 04:37:18;;;;;;;8.85;1.27;;;5.50;53.10;;;;;;5030430;28;20505;-74
2021/04/27 04:39:44;;;;;;;8.25;1.70;;;5.40;53.40;;;;;;5030345;28;20117;-73
2021/04/27 04:42:10;;;;;;;5.93;1.42;;;5.30;54.00;;;;;;5030305;28;20041;-73
2021/04/27 04:44:35;;;;;;;11.30;2.05;;;5.30;54.20;;;;;;5030153;28;20033;-73
2021/04/27 04:47:01;;;;;;;7.60;1.63;;;5.50;54.00;;;;;;5031568;28;20533;-74
2021/04/27 04:49:26;;;;;;;5.70;1.60;;;5.40;54.60;;;;;;5030322;28;20608;-75
2021/04/27 04:51:53;;;;;;;4.32;1.23;;;5.40;54.90;;;;;;5030120;28;20068;-74
2021/04/27 04:54:20;;;;;;;4.93;1.40;;;5.40;54.80;;;;;;5030200;28;20128;-74
2021/04/27 04:56:46;;;;;;;6.85;1.60;;;5.40;54.90;;;;;;5030115;28;20038;-74
2021/04/27 04:59:12;;;;;;;3.97;1.55;;;5.50;54.60;;;;;;5029027;28;20124;-72
2021/04/27 05:01:39;;;;;;;9.18;1.90;;;5.60;54.10;;;;;;5029640;28;20171;-73
2021/04/27 05:04:04;;;;;;;3.72;2.08;;;5.60;55.20;;;;;;5029379;28;20483;-74
2021/04/27 05:06:35;;;;;;;5.57;1.92;;;5.70;54.50;;;;;;5028480;28;20167;-74
2021/04/27 05:09:05;;;;;;;10.30;1.67;;;5.80;54.10;;;;;;5029594;28;20087;-74
2021/04/27 05:11:31;;;;;;;13.93;1.95;;;5.90;53.40;;;;;;5028681;28;20025;-74
2021/04/27 05:13:57;;;;;;;8.38;1.70;;;5.90;53.20;;;;;;5031022;28;20045;-74
2021/04/27 05:16:24;;;;;;;19.63;2.05;;;6.00;52.90;;;;;;5029755;28;20454;-74
2021/04/27 05:18:50;;;;;;;8.50;1.95;;;6.00;53.00;;;;;;5029291;28;20519;-75
2021/04/27 05:21:16;;;;;;;5.03;1.63;;;6.00;52.70;;;;;;5029443;28;20447;-73
2021/04/27 05:23:43;;;;;;;17.98;2.35;;;6.00;53.00;;;;;;5029320;28;20088;-75
2021/04/27 05:26:09;;;;;;;7.23;1.70;;;6.00;53.10;;;;;;5029650;28;20029;-74
2021/04/27 05:28:34;;;;;;;10.35;1.80;;;6.00;52.90;;;;;;5029074;28;20447;-73
2021/04/27 05:31:00;;;;;;;11.18;1.80;;;6.00;52.70;;;;;;5029134;28;20501;-75
2021/04/27 05:33:26;;;;;;;6.65;1.85;;;6.00;52.70;;;;;;5028894;28;20048;-75
2021/04/27 05:35:51;;;;;;;5.10;1.80;;;6.10;52.70;;;;;;5029210;28;20033;-75
2021/04/27 05:38:17;;;;;;;6.50;1.98;;;6.10;52.70;;;;;;5029505;28;20270;-74
2021/04/27 05:40:42;;;;;;;5.03;1.95;;;6.10;52.70;;;;;;5030839;28;20037;-74
2021/04/27 05:43:08;;;;;;;8.88;3.30;;;6.10;52.80;;;;;;5029089;28;20044;-75
2021/04/27 05:45:34;;;;;;;9.50;2.30;;;6.10;52.60;;;;;;5028774;28;20082;-73
2021/04/27 05:48:00;;;;;;;9.63;2.80;;;6.20;52.60;;;;;;5028558;28;20475;-75
2021/04/27 05:50:26;;;;;;;4.68;2.20;;;6.30;52.50;;;;;;5028714;28;20031;-73
2021/04/27 05:52:52;;;;;;;9.80;2.25;;;6.40;52.50;;;;;;5030341;28;20035;-74
2021/04/27 05:55:18;;;;;;;7.20;2.33;;;6.40;52.20;;;;;;5028957;28;20412;-73
2021/04/27 05:57:44;;;;;;;14.77;3.00;;;6.50;52.20;;;;;;5029096;28;20049;-74
2021/04/27 06:00:10;;;;;;;17.45;4.00;;;6.60;52.30;;;;;;5028856;28;20344;-74
2021/04/27 06:02:36;;;;;;;10.63;2.83;;;6.60;52.10;;;;;;5028529;28;20029;-74
2021/04/27 06:05:02;;;;;;;21.80;4.80;;;6.70;52.20;;;;;;5030341;28;20033;-74
2021/04/27 06:07:28;;;;;;;15.18;3.20;;;6.70;51.80;;;;;;5027705;28;20049;-73
2021/04/27 06:09:54;;;;;;;11.13;2.85;;;6.90;51.80;;;;;;5028528;28;20045;-74
2021/04/27 06:12:20;;;;;;;16.42;4.18;;;6.90;51.50;;;;;;5028603;28;20095;-75
2021/04/27 06:14:45;;;;;;;15.10;3.17;;;7.00;51.50;;;;;;5028503;28;20374;-73
2021/04/27 06:17:11;;;;;;;10.93;3.15;;;7.00;51.40;;;;;;5028999;28;20029;-68
2021/04/27 06:19:37;;;;;;;16.45;2.92;;;7.20;51.30;;;;;;5028815;28;20018;-74
2021/04/27 06:22:03;;;;;;;23.92;2.80;;;7.20;51.20;;;;;;5028350;28;20052;-74
2021/04/27 06:24:29;;;;;;;11.10;3.00;;;7.30;51.10;;;;;;5027266;28;20029;-73
2021/04/27 06:26:54;;;;;;;10.65;2.95;;;7.30;50.80;;;;;;5028361;28;20060;-74
2021/04/27 06:29:20;;;;;;;10.80;2.60;;;7.40;50.70;;;;;;5028429;28;20045;-74
2021/04/27 06:31:45;;;;;;;15.45;3.25;;;7.40;50.40;;;;;;5030148;28;20095;-74
2021/04/27 06:34:11;;;;;;;9.93;3.38;;;7.60;50.40;;;;;;5028652;28;20026;-74
2021/04/27 06:36:37;;;;;;;11.48;3.33;;;7.60;50.00;;;;;;5028606;28;20034;-73
2021/04/27 06:39:04;;;;;;;7.50;2.58;;;7.70;49.90;;;;;;5028609;28;20038;-74
2021/04/27 06:41:34;;;;;;;12.70;3.97;;;7.70;49.80;;;;;;5028866;28;20101;-74
2021/04/27 06:44:01;;;;;;;20.50;3.55;;;7.70;49.90;;;;;;5030071;28;20031;-73
2021/04/27 06:46:27;;;;;;;7.63;2.65;;;7.90;49.90;;;;;;5028392;28;20065;-73
2021/04/27 06:48:53;;;;;;;8.80;2.75;;;8.10;49.70;;;;;;5028363;28;20054;-73
2021/04/27 06:51:19;;;;;;;11.45;2.92;;;8.30;49.50;;;;;;5027771;28;20095;-74
2021/04/27 06:53:48;;;;;;;10.13;3.08;;;8.60;49.20;;;;;;5028190;28;20311;-75
2021/04/27 06:56:15;;;;;;;11.30;2.90;;;9.00;49.00;;;;;;5027920;28;20104;-76
2021/04/27 06:58:41;;;;;;;15.13;3.17;;;9.40;47.90;;;;;;5029711;28;20087;-74
2021/04/27 07:01:07;;;;;;;8.60;2.70;;;9.70;47.40;;;;;;5028268;28;20439;-74
2021/04/27 07:03:33;;;;;;;8.20;2.85;;;9.90;46.70;;;;;;5028199;28;20132;-74
2021/04/27 07:05:59;;;;;;;13.02;2.95;;;10.30;45.90;;;;;;5027282;28;20094;-74
2021/04/27 07:08:25;;;;;;;12.45;2.58;;;10.80;45.50;;;;;;5028467;28;20113;-74
2021/04/27 07:10:53;;;;;;;6.97;2.38;;;11.60;44.90;;;;;;5030015;28;20105;-75
2021/04/27 07:13:19;;;;;;;7.72;2.15;;;12.30;43.80;;;;;;5028393;28;20038;-75
2021/04/27 07:15:45;;;;;;;9.43;2.53;;;13.10;42.30;;;;;;5027960;28;20117;-74
2021/04/27 07:18:11;;;;;;;5.57;2.55;;;13.60;40.80;;;;;;5028165;28;20490;-74
2021/04/27 07:20:37;;;;;;;11.18;2.28;;;14.10;39.60;;;;;;5027998;28;20033;-73
2021/04/27 07:23:03;;;;;;;5.55;2.72;;;14.50;39.00;;;;;;5029630;28;20030;-74
2021/04/27 07:25:28;;;;;;;6.13;2.40;;;14.80;38.00;;;;;;5028642;28;20122;-73
2021/04/27 07:27:54;;;;;;;13.40;2.38;;;15.40;38.00;;;;;;5032065;28;20463;-73
2021/04/27 07:30:21;;;;;;;6.57;2.17;;;15.70;37.30;;;;;;5031586;28;20071;-74
2021/04/27 07:32:47;;;;;;;8.68;2.53;;;16.40;36.20;;;;;;5030779;28;20036;-73
2021/04/27 07:35:13;;;;;;;8.00;2.88;;;16.80;35.10;;;;;;5031903;28;20490;-73
2021/04/27 07:37:39;;;;;;;6.13;2.20;;;17.00;34.40;;;;;;5033071;28;20045;-73
2021/04/27 07:40:07;;;;;;;12.02;3.22;;;17.70;34.30;;;;;;5031633;28;20039;-73
2021/04/27 07:42:33;;;;;;;12.43;2.97;;;18.40;33.10;;;;;;5031181;28;20400;-75
2021/04/27 07:44:59;;;;;;;13.15;3.33;;;18.70;32.60;;;;;;5031633;28;20033;-75
2021/04/27 07:47:26;;;;;;;5.47;2.65;;;18.80;31.10;;;;;;5031462;28;20036;-75
2021/04/27 07:49:52;;;;;;;7.45;2.88;;;18.90;30.40;;;;;;5032859;28;20391;-74
2021/04/27 07:52:18;;;;;;;8.98;3.00;;;19.30;29.70;;;;;;5031369;28;20060;-73
2021/04/27 07:54:45;;;;;;;5.65;2.42;;;19.90;29.10;;;;;;5031210;28;20038;-73
2021/04/27 07:57:12;;;;;;;10.80;2.40;;;20.30;29.00;;;;;;5030039;28;20038;-73
2021/04/27 07:59:37;;;;;;;6.68;2.47;;;20.40;28.80;;;;;;5031057;28;20419;-73
2021/04/27 08:02:03;;;;;;;6.13;2.92;;;21.00;29.00;;;;;;5031477;28;20452;-73
2021/04/27 08:04:29;;;;;;;4.47;2.50;;;21.60;28.50;;;;;;5030932;28;20451;-75
2021/04/27 08:06:55;;;;;;;7.22;2.25;;;22.10;28.10;;;;;;5030620;28;20045;-74
2021/04/27 08:09:20;;;;;;;7.95;2.58;;;22.20;26.90;;;;;;5030904;28;20046;-73
2021/04/27 08:11:46;;;;;;;5.50;1.80;;;22.60;26.40;;;;;;5031107;28;20029;-72
2021/04/27 08:14:13;;;;;;;4.20;1.70;;;22.90;26.00;;;;;;5030770;28;20029;-72
2021/04/27 08:16:39;;;;;;;2.47;1.57;;;22.90;26.00;;;;;;5032541;28;20028;-73
2021/04/27 08:19:05;;;;;;;5.13;1.60;;;23.10;26.40;;;;;;5031118;28;20041;-74
2021/04/27 08:21:31;;;;;;;6.15;1.73;;;23.40;25.90;;;;;;5031057;28;20049;-74
2021/04/27 08:23:57;;;;;;;3.95;1.80;;;23.20;25.50;;;;;;5030491;28;20041;-74
2021/04/27 08:26:23;;;;;;;8.10;1.92;;;23.10;25.50;;;;;;5030677;28;20048;-73
2021/04/27 08:28:49;;;;;;;6.45;2.20;;;23.50;24.80;;;;;;5031808;28;20407;-74
2021/04/27 08:31:14;;;;;;;8.00;2.13;;;23.70;24.90;;;;;;5030314;28;20049;-74
2021/04/27 08:33:40;;;;;;;4.40;1.90;;;23.80;24.30;;;;;;5030462;28;20083;-73
2021/04/27 08:36:06;;;;;;;4.15;1.67;;;23.70;24.20;;;;;;5030241;28;20045;-74
2021/04/27 08:38:32;;;;;;;3.45;1.50;;;24.30;24.20;;;;;;5029529;28;20124;-74
2021/04/27 08:41:00;;;;;;;5.75;1.60;;;23.90;23.00;;;;;;5032107;28;20339;-74
2021/04/27 08:43:26;;;;;;;3.70;1.50;;;24.40;23.40;;;;;;5029354;28;20030;-74
2021/04/27 08:45:52;;;;;;;2.30;1.35;;;24.70;23.60;;;;;;5030305;28;20033;-74
2021/04/27 08:48:17;;;;;;;9.77;2.17;;;23.80;22.60;;;;;;5030543;28;20402;-73
2021/04/27 08:50:45;;;;;;;6.55;1.90;;;24.20;22.40;;;;;;5030694;28;20040;-74
2021/04/27 08:53:12;;;;;;;9.35;2.75;;;23.90;23.20;;;;;;5030792;28;20036;-73
2021/04/27 08:55:38;;;;;;;4.72;1.80;;;23.40;23.40;;;;;;5030541;28;20052;-73
2021/04/27 08:58:08;;;;;;;5.35;1.80;;;22.90;23.50;;;;;;5029054;28;20220;-74
2021/04/27 09:00:35;;;;;;;7.78;2.45;;;22.70;23.70;;;;;;5029751;28;20033;-74
2021/04/27 09:03:03;;;;;;;3.53;2.05;;;22.50;24.00;;;;;;5030128;28;20037;-75
2021/04/27 09:05:31;;;;;;;3.92;1.88;;;22.70;24.00;;;;;;5029938;28;20013;-75
2021/04/27 09:07:58;;;;;;;5.40;1.73;;;22.60;24.20;;;;;;5031422;28;20021;-76
2021/04/27 09:10:45;;;;;;;3.20;1.83;;;22.90;24.10;;;;;;5029002;28;20486;-74
2021/04/27 09:13:17;;;;;;;7.78;2.30;;;22.80;24.00;;;;;;5030039;28;20033;-74
2021/04/27 09:15:48;;;;;;;5.05;1.92;;;23.00;23.50;;;;;;5029384;28;20084;-75
2021/04/27 09:18:34;;;;;;;9.98;2.63;;;22.70;23.20;;;;;;5028844;28;20063;-74
2021/04/27 09:21:00;;;;;;;8.48;2.72;;;23.10;22.80;;;;;;5028898;28;20451;-73
2021/04/27 09:23:26;;;;;;;3.72;1.60;;;23.20;21.90;;;;;;5029685;28;20051;-74
2021/04/27 09:26:16;;;;;;;2.55;1.45;;;23.60;22.30;;;;;;5030801;28;20119;-73
2021/04/27 09:28:52;;;;;;;10.80;1.77;;;24.60;22.50;;;;;;5030056;28;20033;-73
2021/04/27 09:31:30;;;;;;;4.63;1.30;;;25.20;21.80;;;;;;5029270;28;20116;-72
2021/04/27 09:34:15;;;;;;;;;;;25.80;21.60;;;;;;5029841;28;20040;-73
2021/04/27 09:36:41;;;;;;;3.08;1.30;;;25.40;21.10;;;;;;5029257;28;20339;-73
2021/04/27 09:39:06;;;;;;;3.78;1.50;;;25.30;21.20;;;;;;5029371;28;20135;-73
2021/04/27 09:41:32;;;;;;;5.80;1.40;;;25.20;20.70;;;;;;5029132;28;20047;-73
2021/04/27 09:43:58;;;;;;;5.30;1.55;;;24.90;20.80;;;;;;5030685;28;20055;-75
2021/04/27 09:46:24;;;;;;;5.15;1.63;;;25.10;21.30;;;;;;5029378;28;20037;-75
2021/04/27 09:48:52;;;;;;;6.88;1.80;;;25.30;20.90;;;;;;5028781;28;20052;-72
2021/04/27 09:51:30;;;;;;;3.97;1.90;;;25.20;20.60;;;;;;5029339;28;20041;-72
2021/04/27 09:53:57;;;;;;;;;;;24.70;20.70;;;;;;5028359;28;20053;-72
2021/04/27 09:56:44;;;;;;;8.55;2.08;;;24.90;21.60;;;;;;5029104;28;19908;-72
2021/04/27 09:59:13;;;;;;;;;;;24.60;21.30;;;;;;5030670;28;20018;-74
2021/04/27 10:01:41;;;;;;;4.82;1.60;;;23.80;21.30;;;;;;5029019;28;19967;-73
2021/04/27 10:04:07;;;;;;;2.88;1.40;;;24.00;21.80;;;;;;5028718;28;20026;-73
2021/04/27 10:06:40;;;;;;;5.32;2.00;;;24.50;21.60;;;;;;5028888;28;20452;-73
2021/04/27 10:09:06;;;;;;;3.33;1.40;;;24.70;21.20;;;;;;5028721;28;20045;-74
2021/04/27 10:11:32;;;;;;;4.60;1.38;;;24.30;21.30;;;;;;5028778;28;20488;-72
2021/04/27 10:13:58;;;;;;;8.27;1.50;;;24.10;21.20;;;;;;5030307;28;20038;-74
2021/04/27 10:16:24;;;;;;;10.45;1.77;;;24.60;21.10;;;;;;5028573;28;20351;-74
2021/04/27 10:18:53;;;;;;;6.30;1.98;;;24.30;21.00;;;;;;5028938;28;20120;-74
2021/04/27 10:21:18;;;;;;;2.67;1.30;;;23.30;20.90;;;;;;5028465;28;20037;-74
2021/04/27 10:23:48;;;;;;;4.88;1.48;;;22.80;21.10;;;;;;5028559;28;20037;-74
2021/04/27 10:26:14;;;;;;;3.60;1.30;;;22.60;21.60;;;;;;5028185;28;20029;-74
2021/04/27 10:29:03;;;;;;;2.75;1.60;;;22.30;21.70;;;;;;5030218;28;20060;-74
2021/04/27 10:31:31;;;;;;;4.70;1.38;;;21.60;22.00;;;;;;5027584;28;20451;-73
2021/04/27 10:34:01;;;;;;;2.38;1.52;;;21.10;22.30;;;;;;5028605;28;20045;-73
2021/04/27 10:36:28;;;;;;;3.95;1.52;;;20.80;22.30;;;;;;5028911;28;20046;-73
2021/04/27 10:38:59;;;;;;;3.45;1.95;;;19.90;22.70;;;;;;5028469;28;20038;-73
2021/04/27 10:41:44;;;;;;;4.40;1.50;;;19.40;23.30;;;;;;5027943;28;20049;-74
2021/04/27 10:44:11;;;;;;;4.10;1.42;;;18.90;23.50;;;;;;5029993;28;20017;-75
2021/04/27 10:46:40;;;;;;;5.63;2.25;;;18.90;23.90;;;;;;5028764;28;20099;-73
2021/04/27 10:49:19;;;;;;;5.35;1.58;;;19.00;23.90;;;;;;5028183;28;20045;-75
2021/04/27 10:51:46;;;;;;;3.80;1.63;;;18.40;23.90;;;;;;5028537;28;20180;-75
2021/04/27 10:54:20;;;;;;;2.70;1.50;;;18.30;24.20;;;;;;5028328;28;20478;-74
2021/04/27 10:57:00;;;;;;;6.47;1.42;;;17.90;24.40;;;;;;5028262;28;20046;-75
2021/04/27 10:59:30;;;;;;;4.38;1.45;;;17.90;24.60;;;;;;5028265;28;20021;-74
2021/04/27 11:02:17;;;;;;;5.72;1.55;;;18.10;24.20;;;;;;5033544;28;20351;-74
2021/04/27 11:05:01;;;;;;;12.00;2.53;;;18.00;24.50;;;;;;5032419;28;20525;-74
2021/04/27 11:07:27;;;;;;;5.63;1.63;;;17.80;24.40;;;;;;5031905;28;20053;-75
2021/04/27 11:09:58;;;;;;;6.43;1.90;;;17.50;24.90;;;;;;5032305;28;20038;-75
2021/04/27 11:12:32;;;;;;;3.95;1.48;;;17.30;25.20;;;;;;5031913;28;20025;-73
2021/04/27 11:15:13;;;;;;;6.85;1.73;;;17.20;25.40;;;;;;5031644;28;20606;-74
2021/04/27 11:17:41;;;;;;;6.07;1.88;;;17.10;25.10;;;;;;5031806;28;20121;-74
2021/04/27 11:20:10;;;;;;;7.17;2.20;;;17.00;24.90;;;;;;5033590;28;20075;-73
2021/04/27 11:22:50;;;;;;;6.57;1.80;;;17.00;25.20;;;;;;5032101;28;20125;-74
2021/04/27 11:25:32;;;;;;;7.93;1.92;;;16.90;25.30;;;;;;5031148;28;20060;-75
2021/04/27 11:27:58;;;;;;;7.25;1.83;;;16.70;25.60;;;;;;5031077;28;20137;-74
2021/04/27 11:30:33;;;;;;;2.90;1.40;;;16.60;25.50;;;;;;5031924;28;20112;-74
2021/04/27 11:33:04;;;;;;;3.33;2.00;;;16.70;25.60;;;;;;5030583;28;20064;-74
2021/04/27 11:35:39;;;;;;;7.30;2.00;;;16.60;25.40;;;;;;5030384;28;20030;-74
2021/04/27 11:38:06;;;;;;;8.55;2.03;;;16.40;25.40;;;;;;5033222;28;20022;-73
2021/04/27 11:40:33;;;;;;;9.88;2.33;;;16.40;25.60;;;;;;5031337;28;20121;-73
2021/04/27 11:43:19;;;;;;;5.07;1.93;;;16.40;25.70;;;;;;5031434;28;20464;-74
2021/04/27 11:45:50;;;;;;;12.10;3.17;;;16.50;25.90;;;;;;5030942;28;20030;-74
2021/04/27 11:48:21;;;;;;;16.20;3.20;;;16.40;26.00;;;;;;5030821;28;20571;-73
2021/04/27 11:50:48;;;;;;;4.97;1.90;;;16.40;26.20;;;;;;5029690;28;20084;-74
2021/04/27 11:53:20;;;;;;;5.43;1.67;;;16.20;25.50;;;;;;5030950;28;20028;-74
2021/04/27 11:55:53;;;;;;;15.55;3.40;;;16.20;25.30;;;;;;5032416;28;20350;-72
2021/04/27 11:58:24;;;;;;;4.78;1.83;;;16.10;25.50;;;;;;5029670;28;20125;-73
2021/04/27 12:00:54;;;;;;;7.70;1.95;;;16.20;25.40;;;;;;5029738;28;20068;-72
2021/04/27 12:03:20;;;;;;;7.30;2.15;;;16.30;25.80;;;;;;5031079;28;20479;-74
2021/04/27 12:05:48;;;;;;;5.25;2.42;;;16.10;25.20;;;;;;5030989;28;20108;-73
2021/04/27 12:08:21;;;;;;;;;;;16.20;26.00;;;;;;5031231;28;20053;-73
2021/04/27 12:10:48;;;;;;;5.45;2.38;;;16.00;26.60;;;;;;5032268;28;20343;-75
2021/04/27 12:13:22;;;;;;;5.30;2.10;;;16.00;26.60;;;;;;5031542;28;20041;-72
2021/04/27 12:16:08;;;;;;;2.83;1.50;;;16.00;26.50;;;;;;5030709;28;20041;-73
2021/04/27 12:18:46;;;;;;;5.35;2.00;;;15.80;26.30;;;;;;5030663;28;20091;-74
2021/04/27 12:21:34;;;;;;;11.05;2.53;;;15.60;26.60;;;;;;5030651;28;20038;-72
2021/04/27 12:24:07;;;;;;;4.78;2.08;;;15.60;26.40;;;;;;5030470;28;20045;-73
2021/04/27 12:26:33;;;;;;;3.58;1.90;;;15.50;26.00;;;;;;5029504;28;20037;-73
2021/04/27 12:29:00;;;;;;;3.22;2.08;;;15.50;26.00;;;;;;5032201;28;20029;-75
2021/04/27 12:31:26;;;;;;;9.10;1.88;;;15.70;26.40;;;;;;5030737;28;20072;-73
2021/04/27 12:33:59;;;;;;;2.58;1.90;;;15.70;26.30;;;;;;5030949;28;20091;-74
2021/04/27 12:36:44;;;;;;;4.18;2.47;;;15.80;26.30;;;;;;5030666;28;20371;-75
2021/04/27 12:39:24;;;;;;;6.35;1.75;;;15.80;26.40;;;;;;5030440;28;20034;-75
2021/04/27 12:41:59;;;;;;;3.97;1.67;;;15.80;26.50;;;;;;5030689;28;20059;-72
2021/04/27 12:44:29;;;;;;;3.45;1.67;;;15.90;26.70;;;;;;5030304;28;20080;-73
2021/04/27 12:46:56;;;;;;;3.03;1.77;;;15.70;26.40;;;;;;5032117;28;20018;-73
2021/04/27 12:49:27;;;;;;;5.38;1.98;;;15.50;26.50;;;;;;5030150;28;20124;-73
2021/04/27 12:52:14;;;;;;;5.72;2.40;;;15.40;26.80;;;;;;5030169;28;20376;-74
2021/04/27 12:54:40;;;;;;;5.78;2.47;;;15.50;26.60;;;;;;5028838;28;20422;-74
2021/04/27 12:57:17;;;;;;;5.75;2.20;;;15.50;26.50;;;;;;5029143;28;20040;-74
2021/04/27 12:59:45;;;;;;;2.92;1.92;;;15.50;26.50;;;;;;5028689;28;20048;-73